createdAt,value
2022-09-23T00:00:43.223Z,10.45
2022-09-23T00:03:10.706Z,10.63
2022-09-23T00:05:40.516Z,9.93
2022-09-23T00:08:09.757Z,9.82
2022-09-23T00:10:37.729Z,10.60
2022-09-23T00:13:05.712Z,11.05
2022-09-23T00:15:33.813Z,9.95
2022-09-23T00:18:00.284Z,10.07
2022-09-23T00:20:28.330Z,10.93
2022-09-23T00:22:54.841Z,9.85
2022-09-23T00:25:21.317Z,10.25
2022-09-23T00:27:47.784Z,10.82
2022-09-23T00:30:14.249Z,10.15
2022-09-23T00:32:40.747Z,10.35
2022-09-23T00:35:08.988Z,10.48
2022-09-23T00:37:35.458Z,10.43
2022-09-23T00:40:02.921Z,10.20
2022-09-23T00:42:29.478Z,10.52
2022-09-23T00:44:58.017Z,11.15
2022-09-23T00:47:44.269Z,10.02
2022-09-23T00:50:42.793Z,11.38
2022-09-23T00:53:12.745Z,12.07
2022-09-23T00:55:42.986Z,10.85
2022-09-23T00:58:12.630Z,12.43
2022-09-23T01:00:39.118Z,12.40
2022-09-23T01:03:06.777Z,11.48
2022-09-23T01:05:33.877Z,10.98
2022-09-23T01:08:01.594Z,11.63
2022-09-23T01:10:41.195Z,11.05
2022-09-23T01:13:45.211Z,11.30
2022-09-23T01:16:19.761Z,12.55
2022-09-23T01:19:18.613Z,11.30
2022-09-23T01:22:09.393Z,10.90
2022-09-23T01:25:02.127Z,10.23
2022-09-23T01:27:50.144Z,11.30
2022-09-23T01:30:41.720Z,10.13
2022-09-23T01:33:21.995Z,10.75
2022-09-23T01:36:05.603Z,10.52
2022-09-23T01:38:53.085Z,10.57
2022-09-23T01:41:33.098Z,10.55
2022-09-23T01:44:26.603Z,11.32
2022-09-23T01:47:16.392Z,11.77
2022-09-23T01:49:56.919Z,10.80
2022-09-23T01:52:30.335Z,11.68
2022-09-23T01:55:20.008Z,11.25
2022-09-23T01:57:52.860Z,12.48
2022-09-23T02:00:22.280Z,11.73
2022-09-23T02:02:52.691Z,10.85
2022-09-23T02:05:25.951Z,11.32
2022-09-23T02:07:59.322Z,11.73
2022-09-23T02:10:35.963Z,11.73
2022-09-23T02:13:06.930Z,12.15
2022-09-23T02:15:36.827Z,12.38
2022-09-23T02:18:15.458Z,12.50
2022-09-23T02:20:43.341Z,10.85
2022-09-23T02:23:23.120Z,12.38
2022-09-23T02:26:08.575Z,12.77
2022-09-23T02:28:44.335Z,10.55
2022-09-23T02:31:31.741Z,11.50
2022-09-23T02:34:08.493Z,11.32
2022-09-23T02:37:01.701Z,11.75
2022-09-23T02:39:51.245Z,10.98
2022-09-23T02:42:21.712Z,10.85
2022-09-23T02:44:48.225Z,10.52
2022-09-23T02:47:16.551Z,10.43
2022-09-23T02:49:43.017Z,11.43
2022-09-23T02:52:09.627Z,10.85
2022-09-23T02:54:37.240Z,10.35
2022-09-23T02:57:06.736Z,11.20
2022-09-23T02:59:34.249Z,9.45
2022-09-23T03:02:39.828Z,9.73
2022-09-23T03:05:24.053Z,10.52
2022-09-23T03:08:25.651Z,9.80
2022-09-23T03:11:08.863Z,10.00
2022-09-23T03:14:06.632Z,10.40
2022-09-23T03:16:56.522Z,9.55
2022-09-23T03:19:42.051Z,9.40
2022-09-23T03:22:36.670Z,10.75
2022-09-23T03:25:07.611Z,10.57
2022-09-23T03:27:35.421Z,10.20
2022-09-23T03:30:02.753Z,9.30
2022-09-23T03:32:29.719Z,9.25
2022-09-23T03:35:03.763Z,9.30
2022-09-23T03:37:40.947Z,9.88
2022-09-23T03:40:10.231Z,9.07
2022-09-23T03:42:37.650Z,9.73
2022-09-23T03:45:08.240Z,9.15
2022-09-23T03:47:35.526Z,10.13
2022-09-23T03:50:01.990Z,9.98
2022-09-23T03:52:28.519Z,9.00
2022-09-23T03:54:54.967Z,8.55
2022-09-23T03:57:22.190Z,9.60
2022-09-23T03:59:51.983Z,9.13
2022-09-23T04:02:19.853Z,9.57
2022-09-23T04:04:46.424Z,9.68
2022-09-23T04:07:13.552Z,9.63
2022-09-23T04:09:40.160Z,8.85
2022-09-23T04:12:06.832Z,9.52
2022-09-23T04:14:34.793Z,10.07
2022-09-23T04:17:01.481Z,9.48
2022-09-23T04:19:28.024Z,9.43
2022-09-23T04:21:54.480Z,9.57
2022-09-23T04:24:21.715Z,10.07
2022-09-23T04:26:51.436Z,9.25
2022-09-23T04:29:17.958Z,10.27
2022-09-23T04:31:44.433Z,9.05
2022-09-23T04:34:14.271Z,9.32
2022-09-23T04:36:40.754Z,9.93
2022-09-23T04:39:07.295Z,11.18
2022-09-23T04:41:33.961Z,10.45
2022-09-23T04:44:00.729Z,12.60
2022-09-23T04:46:27.246Z,12.07
2022-09-23T04:48:53.776Z,13.90
2022-09-23T04:51:22.175Z,11.48
2022-09-23T04:53:52.038Z,11.82
2022-09-23T04:56:21.034Z,12.82
2022-09-23T04:58:47.677Z,13.45
2022-09-23T05:01:19.998Z,14.02
2022-09-23T05:03:46.805Z,12.95
2022-09-23T05:06:14.447Z,12.57
2022-09-23T05:08:41.785Z,11.00
2022-09-23T05:11:08.906Z,10.88
2022-09-23T05:13:35.440Z,11.23
2022-09-23T05:16:11.588Z,11.35
2022-09-23T05:18:43.278Z,11.32
2022-09-23T05:21:15.191Z,9.45
2022-09-23T05:23:42.354Z,10.70
2022-09-23T05:26:10.894Z,10.60
2022-09-23T05:28:39.152Z,10.40
2022-09-23T05:31:20.341Z,10.57
2022-09-23T05:33:51.627Z,10.68
2022-09-23T05:36:18.797Z,10.05
2022-09-23T05:38:45.330Z,9.73
2022-09-23T05:41:13.426Z,9.35
2022-09-23T05:43:40.977Z,9.48
2022-09-23T05:46:11.389Z,11.15
2022-09-23T05:48:38.369Z,10.80
2022-09-23T05:51:08.995Z,10.43
2022-09-23T05:53:37.426Z,9.60
2022-09-23T05:58:31.849Z,9.15
2022-09-23T06:00:58.545Z,9.48
2022-09-23T06:03:25.587Z,9.35
2022-09-23T06:05:55.694Z,8.95
2022-09-23T06:08:23.510Z,8.38
2022-09-23T06:10:54.459Z,8.13
2022-09-23T06:13:21.511Z,8.20
2022-09-23T06:15:48.958Z,8.05
2022-09-23T06:18:15.498Z,8.10
2022-09-23T06:20:41.935Z,8.55
2022-09-23T06:23:11.061Z,8.15
2022-09-23T06:25:40.798Z,7.97
2022-09-23T06:28:12.387Z,7.47
2022-09-23T06:30:39.916Z,7.63
2022-09-23T06:33:06.525Z,7.18
2022-09-23T06:35:33.242Z,7.32
2022-09-23T06:38:00.131Z,8.25
2022-09-23T06:40:26.687Z,7.07
2022-09-23T06:43:00.543Z,6.78
2022-09-23T06:45:27.412Z,7.00
2022-09-23T06:47:57.932Z,6.80
2022-09-23T06:50:28.007Z,6.57
2022-09-23T06:52:56.159Z,6.20
2022-09-23T06:55:24.360Z,6.32
2022-09-23T06:57:50.985Z,6.45
2022-09-23T07:00:17.495Z,6.57
2022-09-23T07:02:44.142Z,6.18
2022-09-23T07:05:10.720Z,6.43
2022-09-23T07:07:38.176Z,6.32
2022-09-23T07:10:05.786Z,6.35
2022-09-23T07:12:32.963Z,6.13
2022-09-23T07:14:59.425Z,6.47
2022-09-23T07:17:26.007Z,6.28
2022-09-23T07:19:54.906Z,6.25
2022-09-23T07:22:26.359Z,5.85
2022-09-23T07:24:55.925Z,5.88
2022-09-23T07:27:26.513Z,5.97
2022-09-23T07:29:53.227Z,5.72
2022-09-23T07:32:21.882Z,5.22
2022-09-23T07:34:48.729Z,5.47
2022-09-23T07:37:16.455Z,5.30
2022-09-23T07:39:43.308Z,5.30
2022-09-23T07:42:11.116Z,5.57
2022-09-23T07:44:37.581Z,5.32
2022-09-23T07:47:04.037Z,5.15
2022-09-23T07:49:30.482Z,5.15
2022-09-23T07:51:56.987Z,5.28
2022-09-23T07:54:25.442Z,4.95
2022-09-23T07:56:52.004Z,4.95
2022-09-23T07:59:18.568Z,4.80
2022-09-23T08:01:48.325Z,4.97
2022-09-23T08:04:17.949Z,4.70
2022-09-23T08:07:04.953Z,4.63
2022-09-23T08:09:33.994Z,3.97
2022-09-23T08:12:01.330Z,4.22
2022-09-23T08:14:27.829Z,4.47
2022-09-23T08:16:54.280Z,4.38
2022-09-23T08:19:20.888Z,4.38
2022-09-23T08:21:47.968Z,3.83
2022-09-23T08:24:17.138Z,4.72
2022-09-23T08:26:44.746Z,4.22
2022-09-23T08:29:18.164Z,3.92
2022-09-23T08:31:44.707Z,4.28
2022-09-23T08:34:11.550Z,3.80
2022-09-23T08:36:38.024Z,3.72
2022-09-23T08:39:04.931Z,3.90
2022-09-23T08:41:44.265Z,3.80
2022-09-23T08:44:13.993Z,4.10
2022-09-23T08:46:47.940Z,3.88
2022-09-23T08:49:20.412Z,4.20
2022-09-23T08:51:47.476Z,4.00
2022-09-23T08:54:16.979Z,3.67
2022-09-23T08:56:45.950Z,3.55
2022-09-23T08:59:17.596Z,3.60
2022-09-23T09:01:46.434Z,4.20
2022-09-23T09:04:32.460Z,3.70
2022-09-23T09:07:34.803Z,3.47
2022-09-23T09:10:03.008Z,3.42
2022-09-23T09:12:48.815Z,3.55
2022-09-23T09:15:19.907Z,3.90
2022-09-23T09:18:01.131Z,3.85
2022-09-23T09:20:50.409Z,3.58
2022-09-23T09:23:37.297Z,3.38
2022-09-23T09:26:04.557Z,3.20
2022-09-23T09:28:40.798Z,3.80
2022-09-23T09:31:22.487Z,4.70
2022-09-23T09:33:59.856Z,11.00
2022-09-23T09:36:59.173Z,10.27
2022-09-23T09:39:27.924Z,6.82
2022-09-23T09:41:58.463Z,6.00
2022-09-23T09:44:40.709Z,4.40
2022-09-23T09:47:28.897Z,4.30
2022-09-23T09:50:08.130Z,4.40
2022-09-23T09:52:38.692Z,3.67
2022-09-23T09:55:14.116Z,3.20
2022-09-23T09:58:05.663Z,3.53
2022-09-23T10:00:44.699Z,3.65
2022-09-23T10:03:13.969Z,3.33
2022-09-23T10:05:46.576Z,3.30
2022-09-23T10:08:21.902Z,3.50
2022-09-23T10:11:17.413Z,3.53
2022-09-23T10:14:12.546Z,3.25
2022-09-23T10:16:41.427Z,3.40
2022-09-23T10:19:16.881Z,3.03
2022-09-23T10:21:43.508Z,3.28
2022-09-23T10:24:21.786Z,3.30
2022-09-23T10:26:55.497Z,3.38
2022-09-23T10:32:28.337Z,3.25
2022-09-23T10:35:02.159Z,3.08
2022-09-23T10:37:37.173Z,3.50
2022-09-23T10:40:34.436Z,3.28
2022-09-23T10:43:44.315Z,3.17
2022-09-23T10:46:41.991Z,3.13
2022-09-23T10:49:43.723Z,3.30
2022-09-23T10:52:36.237Z,3.13
2022-09-23T10:55:07.917Z,3.45
2022-09-23T10:58:17.744Z,3.25
2022-09-23T11:01:02.566Z,2.70
2022-09-23T11:03:45.838Z,3.17
2022-09-23T11:06:26.530Z,3.35
2022-09-23T11:09:04.340Z,3.60
2022-09-23T11:11:48.813Z,3.53
2022-09-23T11:14:38.586Z,2.92
2022-09-23T11:17:25.843Z,3.20
2022-09-23T11:20:21.297Z,3.45
2022-09-23T11:22:58.113Z,2.97
2022-09-23T11:25:42.182Z,3.08
2022-09-23T11:28:30.408Z,3.33
2022-09-23T11:31:04.186Z,2.70
2022-09-23T11:33:44.018Z,3.20
2022-09-23T11:36:15.407Z,3.00
2022-09-23T11:38:46.689Z,3.17
2022-09-23T11:41:21.615Z,3.17
2022-09-23T11:43:52.323Z,2.92
2022-09-23T11:46:35.815Z,3.00
2022-09-23T11:49:15.468Z,2.83
2022-09-23T11:52:00.178Z,3.28
2022-09-23T11:54:31.922Z,2.70
2022-09-23T11:57:01.386Z,2.75
2022-09-23T11:59:40.583Z,2.85
2022-09-23T12:02:22.199Z,2.70
2022-09-23T12:05:08.550Z,3.05
2022-09-23T12:07:44.992Z,3.00
2022-09-23T12:10:11.889Z,2.80
2022-09-23T12:13:14.988Z,3.08
2022-09-23T12:16:03.231Z,2.92
2022-09-23T12:18:54.747Z,2.97
2022-09-23T12:21:53.051Z,3.22
2022-09-23T12:24:57.778Z,3.03
2022-09-23T12:27:25.944Z,3.05
2022-09-23T12:29:56.737Z,2.78
2022-09-23T12:32:24.618Z,3.10
2022-09-23T12:34:52.067Z,3.15
2022-09-23T12:37:27.985Z,3.53
2022-09-23T12:39:59.586Z,3.70
2022-09-23T12:42:30.747Z,3.25
2022-09-23T12:45:19.183Z,3.92
2022-09-23T12:47:45.626Z,3.50
2022-09-23T12:50:50.823Z,3.28
2022-09-23T12:53:35.420Z,3.80
2022-09-23T12:56:02.773Z,3.20
2022-09-23T12:58:57.550Z,3.30
2022-09-23T13:01:25.461Z,3.50
2022-09-23T13:04:15.610Z,3.50
2022-09-23T13:07:08.533Z,3.50
2022-09-23T13:09:41.161Z,3.83
2022-09-23T13:12:25.341Z,3.97
2022-09-23T13:14:53.962Z,3.53
2022-09-23T13:17:26.195Z,4.40
2022-09-23T13:20:06.325Z,4.00
2022-09-23T13:23:03.852Z,4.60
2022-09-23T13:25:35.024Z,3.95
2022-09-23T13:28:02.367Z,4.50
2022-09-23T13:30:28.828Z,4.47
2022-09-23T13:33:06.590Z,4.88
2022-09-23T13:35:36.747Z,4.15
2022-09-23T13:38:25.999Z,4.40
2022-09-23T13:41:13.824Z,5.32
2022-09-23T13:43:44.642Z,4.68
2022-09-23T13:46:18.210Z,4.43
2022-09-23T13:51:14.962Z,4.07
2022-09-23T13:53:41.414Z,3.88
2022-09-23T13:56:18.921Z,3.55
2022-09-23T13:58:45.371Z,3.35
2022-09-23T14:01:32.851Z,3.40
2022-09-23T14:03:59.964Z,3.75
2022-09-23T14:06:27.349Z,4.03
2022-09-23T14:08:54.336Z,3.65
2022-09-23T14:11:23.839Z,4.25
2022-09-23T14:13:54.108Z,3.90
2022-09-23T14:16:21.619Z,3.67
2022-09-23T14:18:50.127Z,3.60
2022-09-23T14:21:28.874Z,3.40
2022-09-23T14:23:55.499Z,3.30
2022-09-23T14:26:23.838Z,3.28
2022-09-23T14:28:50.461Z,3.65
2022-09-23T14:31:17.214Z,3.35
2022-09-23T14:33:43.719Z,3.30
2022-09-23T14:36:36.046Z,3.15
2022-09-23T14:39:08.276Z,3.65
2022-09-23T14:41:44.986Z,3.72
2022-09-23T14:44:22.774Z,4.00
2022-09-23T14:46:56.777Z,3.75
2022-09-23T14:49:23.521Z,3.55
2022-09-23T14:52:00.663Z,3.47
2022-09-23T14:54:27.002Z,3.28
2022-09-23T14:56:54.075Z,3.58
2022-09-23T14:59:27.214Z,3.60
2022-09-23T15:01:53.806Z,3.85
2022-09-23T15:04:23.144Z,3.63
2022-09-23T15:06:52.123Z,3.50
2022-09-23T15:09:31.717Z,3.40
2022-09-23T15:12:20.654Z,4.05
2022-09-23T15:14:55.029Z,4.20
2022-09-23T15:17:24.464Z,3.97
2022-09-23T15:19:54.241Z,4.30
2022-09-23T15:22:21.002Z,3.90
2022-09-23T15:24:47.645Z,4.40
2022-09-23T15:27:26.207Z,4.38
2022-09-23T15:29:52.881Z,4.43
2022-09-23T15:32:25.760Z,4.90
2022-09-23T15:34:52.242Z,4.88
2022-09-23T15:37:18.814Z,4.22
2022-09-23T15:39:45.268Z,4.68
2022-09-23T15:42:11.942Z,4.70
2022-09-23T15:44:38.443Z,4.43
2022-09-23T15:47:05.157Z,4.60
2022-09-23T15:49:36.709Z,4.18
2022-09-23T15:52:04.782Z,4.50
2022-09-23T15:54:34.827Z,4.68
2022-09-23T15:57:01.788Z,4.00
2022-09-23T15:59:30.956Z,4.30
2022-09-23T16:01:59.391Z,4.30
2022-09-23T16:04:28.145Z,4.47
2022-09-23T16:06:54.631Z,4.30
2022-09-23T16:09:21.170Z,3.85
2022-09-23T16:11:49.350Z,3.90
2022-09-23T16:14:20.261Z,4.35
2022-09-23T16:16:47.910Z,4.47
2022-09-23T16:19:15.572Z,4.40
2022-09-23T16:21:42.370Z,5.47
2022-09-23T16:24:15.399Z,5.72
2022-09-23T16:26:43.134Z,5.28
2022-09-23T16:29:10.549Z,5.88
2022-09-23T16:31:37.220Z,5.00
2022-09-23T16:34:03.793Z,5.70
2022-09-23T16:36:36.066Z,4.95
2022-09-23T16:39:05.706Z,5.50
2022-09-23T16:41:32.784Z,5.05
2022-09-23T16:44:01.074Z,5.30
2022-09-23T16:46:29.087Z,4.63
2022-09-23T16:48:57.473Z,4.93
2022-09-23T16:51:26.500Z,5.25
2022-09-23T16:53:54.280Z,4.88
2022-09-23T16:56:27.232Z,5.05
2022-09-23T16:58:55.005Z,5.05
2022-09-23T17:01:45.685Z,5.35
2022-09-23T17:04:13.397Z,4.95
2022-09-23T17:06:44.228Z,5.30
2022-09-23T17:09:14.317Z,6.25
2022-09-23T17:11:41.277Z,6.90
2022-09-23T17:14:10.507Z,6.05
2022-09-23T17:16:37.076Z,6.20
2022-09-23T17:19:08.005Z,6.05
2022-09-23T17:21:34.859Z,5.85
2022-09-23T17:24:01.528Z,7.13
2022-09-23T17:26:28.459Z,8.27
2022-09-23T17:28:56.303Z,7.13
2022-09-23T17:31:24.976Z,7.88
2022-09-23T17:33:52.610Z,7.53
2022-09-23T17:36:19.803Z,7.45
2022-09-23T17:38:46.925Z,6.72
2022-09-23T17:41:14.143Z,7.07
2022-09-23T17:43:40.889Z,7.22
2022-09-23T17:46:12.860Z,7.18
2022-09-23T17:48:41.297Z,7.82
2022-09-23T17:51:16.012Z,7.38
2022-09-23T17:53:45.258Z,8.20
2022-09-23T17:56:14.431Z,8.65
2022-09-23T17:58:41.177Z,7.30
2022-09-23T18:01:12.915Z,7.30
2022-09-23T18:03:43.191Z,8.32
2022-09-23T18:06:15.394Z,6.78
2022-09-23T18:08:42.964Z,7.95
2022-09-23T18:11:17.810Z,7.93
2022-09-23T18:14:07.025Z,7.43
2022-09-23T18:16:39.433Z,7.97
2022-09-23T18:19:07.377Z,7.13
2022-09-23T18:21:37.121Z,7.65
2022-09-23T18:24:30.745Z,8.80
2022-09-23T18:26:57.248Z,8.02
2022-09-23T18:29:23.726Z,8.32
2022-09-23T18:31:50.973Z,8.18
2022-09-23T18:34:18.057Z,8.88
2022-09-23T18:36:44.779Z,8.27
2022-09-23T18:39:11.514Z,8.68
2022-09-23T18:41:38.056Z,8.32
2022-09-23T18:44:04.754Z,7.90
2022-09-23T18:46:31.637Z,9.18
2022-09-23T18:49:17.737Z,8.63
2022-09-23T18:51:55.557Z,8.93
2022-09-23T18:54:23.442Z,8.60
2022-09-23T18:56:52.434Z,9.15
2022-09-23T18:59:20.855Z,8.65
2022-09-23T19:01:49.949Z,7.65
2022-09-23T19:04:19.217Z,7.78
2022-09-23T19:06:46.007Z,7.95
2022-09-23T19:09:12.989Z,8.02
2022-09-23T19:11:39.702Z,8.57
2022-09-23T19:14:10.846Z,10.27
2022-09-23T19:16:38.294Z,9.43
2022-09-23T19:19:05.685Z,9.65
2022-09-23T19:21:33.328Z,8.73
2022-09-23T19:24:05.683Z,9.52
2022-09-23T19:26:38.039Z,8.20
2022-09-23T19:29:08.306Z,7.93
2022-09-23T19:31:39.623Z,7.82
2022-09-23T19:34:10.522Z,8.55
2022-09-23T19:36:39.610Z,10.98
2022-09-23T19:39:21.047Z,11.25
2022-09-23T19:41:48.412Z,11.38
2022-09-23T19:44:15.379Z,9.73
2022-09-23T19:46:45.161Z,10.32
2022-09-23T19:49:12.072Z,10.15
2022-09-23T19:51:38.749Z,11.23
2022-09-23T19:54:07.046Z,9.52
2022-09-23T19:56:33.947Z,9.43
2022-09-23T19:59:02.879Z,9.90
2022-09-23T20:01:30.353Z,10.55
2022-09-23T20:03:56.811Z,10.68
2022-09-23T20:06:23.383Z,10.68
2022-09-23T20:08:50.133Z,11.43
2022-09-23T20:11:38.859Z,11.63
2022-09-23T20:14:06.245Z,8.98
2022-09-23T20:16:35.146Z,9.27
2022-09-23T20:19:02.861Z,9.27
2022-09-23T20:21:32.492Z,8.95
2022-09-23T20:23:59.127Z,9.35
2022-09-23T20:26:44.171Z,8.60
2022-09-23T20:29:11.226Z,11.10
2022-09-23T20:31:40.344Z,10.27
2022-09-23T20:34:08.104Z,10.38
2022-09-23T20:36:42.217Z,10.90
2022-09-23T20:39:09.870Z,10.52
2022-09-23T20:41:37.743Z,9.18
2022-09-23T20:44:12.072Z,10.32
2022-09-23T20:46:46.757Z,9.27
2022-09-23T20:49:15.207Z,10.20
2022-09-23T20:51:45.451Z,10.68
2022-09-23T20:54:17.157Z,10.25
2022-09-23T20:56:43.683Z,8.30
2022-09-23T20:59:11.334Z,9.15
2022-09-23T21:01:37.908Z,10.70
2022-09-23T21:04:05.815Z,18.48
2022-09-23T21:06:34.055Z,15.90
2022-09-23T21:09:00.796Z,18.58
2022-09-23T21:11:27.329Z,21.42
2022-09-23T21:13:54.990Z,20.67
2022-09-23T21:16:22.783Z,17.92
2022-09-23T21:18:50.353Z,17.73
2022-09-23T21:21:19.319Z,19.25
2022-09-23T21:23:46.661Z,20.23
2022-09-23T21:26:19.170Z,18.90
2022-09-23T21:28:48.299Z,17.30
2022-09-23T21:31:28.263Z,17.15
2022-09-23T21:33:56.269Z,17.92
2022-09-23T21:36:24.520Z,17.77
2022-09-23T21:38:51.251Z,20.85
2022-09-23T21:41:18.384Z,20.42
2022-09-23T21:43:44.923Z,22.42
2022-09-23T21:46:13.816Z,23.40
2022-09-23T21:48:41.953Z,20.60
2022-09-23T21:51:11.859Z,21.67
2022-09-23T21:53:39.049Z,21.65
2022-09-23T21:56:20.933Z,23.17
2022-09-23T21:58:47.972Z,19.80
2022-09-23T22:01:19.855Z,21.65
2022-09-23T22:03:52.199Z,22.75
2022-09-23T22:06:27.016Z,24.17
2022-09-23T22:08:59.022Z,22.98
2022-09-23T22:11:46.015Z,26.17
2022-09-23T22:14:13.756Z,24.67
2022-09-23T22:16:41.563Z,25.17
2022-09-23T22:19:09.447Z,25.13
2022-09-23T22:21:38.691Z,25.10
2022-09-23T22:24:07.158Z,22.77
2022-09-23T22:26:42.048Z,25.27
2022-09-23T22:29:28.564Z,24.83
2022-09-23T22:32:13.653Z,24.95
2022-09-23T22:34:50.559Z,23.27
2022-09-23T22:37:20.810Z,24.63
2022-09-23T22:39:47.296Z,24.25
2022-09-23T22:42:14.171Z,23.00
2022-09-23T22:44:40.672Z,25.95
2022-09-23T22:47:07.349Z,25.83
2022-09-23T22:49:33.915Z,25.17
2022-09-23T22:52:02.297Z,26.70
2022-09-23T22:54:33.651Z,25.15
2022-09-23T22:57:03.436Z,23.13
2022-09-23T22:59:29.941Z,22.15
2022-09-23T23:01:59.601Z,23.95
2022-09-23T23:04:26.966Z,23.30
2022-09-23T23:06:53.451Z,24.20
2022-09-23T23:09:21.684Z,23.33
2022-09-23T23:11:48.267Z,23.08
2022-09-23T23:14:16.400Z,25.42
2022-09-23T23:16:44.071Z,24.58
2022-09-23T23:19:13.472Z,26.40
2022-09-23T23:21:44.728Z,24.92
2022-09-23T23:24:16.702Z,22.80
2022-09-23T23:26:43.599Z,24.13
2022-09-23T23:29:11.760Z,25.27
2022-09-23T23:31:38.820Z,23.92
2022-09-23T23:34:08.274Z,25.27
2022-09-23T23:36:34.840Z,26.98
2022-09-23T23:39:01.526Z,25.33
2022-09-23T23:41:28.324Z,23.27
2022-09-23T23:43:57.761Z,24.95
2022-09-23T23:46:27.524Z,23.80
2022-09-23T23:48:55.200Z,22.85
2022-09-23T23:51:22.927Z,23.15
2022-09-23T23:53:49.388Z,24.60
2022-09-23T23:56:17.978Z,23.50
2022-09-23T23:58:45.050Z,25.38
